Sitc Xiamen — 3ELU — position and weather

sailwx.info

Track history (hours):
 
Tides and Currents Weather Stations Pressure Air Temp Water Temp Dewpoint Dewpoint Depression Visibility Wind Speed Wind Dir Waves Ship Positions

Sitc Xiamen

Last reported at 2016-Jan-29 09:24 UTC. Time now 2016-Feb-09 05:48 UTC.
Position N 22°07' E 114°15'.
Warning: this ship's position is 10 days out of date.

Length 145 m; draft 8.5 m.

Type: Ship (hazmat cat A). MMSI: 355090000.

Date/timePositionNaut miles runAvg speedWind from/ knotsBaromVisibWave heightAir tempDewpointWater temp
2016-Jan-29 09:24N 22°07' E 114°15'1312.0
2016-Jan-29 08:22N 22°17' E 114°06'10 0.6
2016-Jan-28 17:23N 22°21' E 113°57'8 9.5
2016-Jan-28 16:34N 22°19' E 114°05'3 2.7
2016-Jan-28 15:32N 22°18' E 114°08'0 0.0
2016-Jan-28 14:32N 22°18' E 114°08'0 0.1
2016-Jan-28 13:32N 22°18' E 114°08'0 0.0
2016-Jan-28 12:32N 22°18' E 114°08'0 0.1
2016-Jan-28 11:32N 22°18' E 114°08'0 0.1
2016-Jan-28 10:29N 22°18' E 114°08'0 0.1
2016-Jan-28 09:32N 22°18' E 114°08'0 0.0
2016-Jan-28 08:32N 22°18' E 114°08'0 0.1
2016-Jan-28 07:32N 22°18' E 114°08'0 0.1
2016-Jan-28 06:26N 22°18' E 114°08'0 0.1
2016-Jan-28 05:29N 22°18' E 114°08'0 0.0
2016-Jan-28 04:32N 22°18' E 114°08'0 0.0
2016-Jan-28 03:29N 22°18' E 114°08'0 0.0
2016-Jan-28 02:32N 22°18' E 114°08'0 0.1
2016-Jan-28 01:32N 22°18' E 114°08'0 0.2
2016-Jan-28 00:32N 22°18' E 114°08'0 0.0
2016-Jan-27 23:32N 22°18' E 114°08'0 0.0
2016-Jan-27 22:32N 22°18' E 114°08'0 0.0
2016-Jan-27 21:32N 22°18' E 114°08'0 0.0
2016-Jan-27 20:32N 22°18' E 114°08'0 0.0
2016-Jan-27 19:32N 22°18' E 114°08'0 0.0
2016-Jan-27 18:32N 22°18' E 114°08'0 0.0
2016-Jan-27 17:32N 22°18' E 114°08'0 0.0
2016-Jan-27 16:32N 22°18' E 114°08'0 0.0
2016-Jan-27 15:32N 22°18' E 114°08'0 0.1
2016-Jan-27 14:32N 22°18' E 114°08'0 0.1
2016-Jan-27 13:32N 22°18' E 114°08'0 0.0
2016-Jan-27 12:32N 22°18' E 114°08'0 0.0
2016-Jan-27 11:32N 22°18' E 114°08'0 0.0
2016-Jan-27 10:26N 22°18' E 114°08'0 0.0
2016-Jan-27 09:32N 22°18' E 114°08'24212.0
2016-Jan-26 13:19N 20°13' E 110°26'910.8
2016-Jan-26 12:29N 20°10' E 110°17'  
2016-Jan-21 18:20N 20°10' E 110°04'1114.0
2016-Jan-21 17:31N 20°12' E 110°17'23814.6
2016-Jan-21 01:13N 22°01' E 114°03'1810.6
2016-Jan-20 23:33N 22°18' E 114°06'2 2.2
2016-Jan-20 22:31N 22°18' E 114°08'0 0.0
2016-Jan-20 21:31N 22°18' E 114°08'0 0.0
2016-Jan-20 20:31N 22°18' E 114°08'0 0.0
2016-Jan-20 19:28N 22°18' E 114°08'0 0.0
2016-Jan-20 18:31N 22°18' E 114°08'0 0.0
2016-Jan-20 17:31N 22°18' E 114°08'0 0.0
2016-Jan-20 16:31N 22°18' E 114°08'0 0.0
2016-Jan-20 15:31N 22°18' E 114°08'0 0.0
2016-Jan-20 14:31N 22°18' E 114°08'0 0.0
2016-Jan-20 13:31N 22°18' E 114°08'0 0.0
2016-Jan-20 12:31N 22°18' E 114°08'0 0.0
2016-Jan-20 11:31N 22°18' E 114°08'0 0.0
2016-Jan-20 10:31N 22°18' E 114°08'0 0.0
2016-Jan-20 09:31N 22°18' E 114°08'17 6.9
2016-Jan-20 07:04N 22°10' E 114°24'21814.9
2016-Jan-19 16:23N 23°51' E 117°54'1315.3
2016-Jan-19 15:33N 23°59' E 118°04'1615.0
2016-Jan-19 14:30N 24°14' E 118°11'1212.3
2016-Jan-19 13:33N 24°24' E 118°06'7 6.8
2016-Jan-19 12:33N 24°31' E 118°05'0 0.0
2016-Jan-19 11:31N 24°31' E 118°05'0 0.0
2016-Jan-19 10:19N 24°31' E 118°05'  
Track history (hours):
 
Tides and Currents Weather Stations Pressure Air Temp Water Temp Dewpoint Dewpoint Depression Visibility Wind Speed Wind Dir Waves Ship Positions

Sitc Xiamen

Last reported at 2016-Jan-29 09:24 UTC. Time now 2016-Feb-09 05:48 UTC.
Position N 22°07' E 114°15'.
Warning: this ship's position is 10 days out of date.

Length 145 m; draft 8.5 m.

Type: Ship (hazmat cat A). MMSI: 355090000.

Date/timePositionNaut miles runAvg speedWind from/ knotsBaromVisibWave heightAir tempDewpointWater temp
2016-Jan-29 09:24N 22°07' E 114°15'1312.0
2016-Jan-29 08:22N 22°17' E 114°06'10 0.6
2016-Jan-28 17:23N 22°21' E 113°57'8 9.5
2016-Jan-28 16:34N 22°19' E 114°05'3 2.7
2016-Jan-28 15:32N 22°18' E 114°08'0 0.0
2016-Jan-28 14:32N 22°18' E 114°08'0 0.1
2016-Jan-28 13:32N 22°18' E 114°08'0 0.0
2016-Jan-28 12:32N 22°18' E 114°08'0 0.1
2016-Jan-28 11:32N 22°18' E 114°08'0 0.1
2016-Jan-28 10:29N 22°18' E 114°08'0 0.1
2016-Jan-28 09:32N 22°18' E 114°08'0 0.0
2016-Jan-28 08:32N 22°18' E 114°08'0 0.1
2016-Jan-28 07:32N 22°18' E 114°08'0 0.1
2016-Jan-28 06:26N 22°18' E 114°08'0 0.1
2016-Jan-28 05:29N 22°18' E 114°08'0 0.0
2016-Jan-28 04:32N 22°18' E 114°08'0 0.0
2016-Jan-28 03:29N 22°18' E 114°08'0 0.0
2016-Jan-28 02:32N 22°18' E 114°08'0 0.1
2016-Jan-28 01:32N 22°18' E 114°08'0 0.2
2016-Jan-28 00:32N 22°18' E 114°08'0 0.0
2016-Jan-27 23:32N 22°18' E 114°08'0 0.0
2016-Jan-27 22:32N 22°18' E 114°08'0 0.0
2016-Jan-27 21:32N 22°18' E 114°08'0 0.0
2016-Jan-27 20:32N 22°18' E 114°08'0 0.0
2016-Jan-27 19:32N 22°18' E 114°08'0 0.0
2016-Jan-27 18:32N 22°18' E 114°08'0 0.0
2016-Jan-27 17:32N 22°18' E 114°08'0 0.0
2016-Jan-27 16:32N 22°18' E 114°08'0 0.0
2016-Jan-27 15:32N 22°18' E 114°08'0 0.1
2016-Jan-27 14:32N 22°18' E 114°08'0 0.1
2016-Jan-27 13:32N 22°18' E 114°08'0 0.0
2016-Jan-27 12:32N 22°18' E 114°08'0 0.0
2016-Jan-27 11:32N 22°18' E 114°08'0 0.0
2016-Jan-27 10:26N 22°18' E 114°08'0 0.0
2016-Jan-27 09:32N 22°18' E 114°08'24212.0
2016-Jan-26 13:19N 20°13' E 110°26'910.8
2016-Jan-26 12:29N 20°10' E 110°17'  
2016-Jan-21 18:20N 20°10' E 110°04'1114.0
2016-Jan-21 17:31N 20°12' E 110°17'23814.6
2016-Jan-21 01:13N 22°01' E 114°03'1810.6
2016-Jan-20 23:33N 22°18' E 114°06'2 2.2
2016-Jan-20 22:31N 22°18' E 114°08'0 0.0
2016-Jan-20 21:31N 22°18' E 114°08'0 0.0
2016-Jan-20 20:31N 22°18' E 114°08'0 0.0
2016-Jan-20 19:28N 22°18' E 114°08'0 0.0
2016-Jan-20 18:31N 22°18' E 114°08'0 0.0
2016-Jan-20 17:31N 22°18' E 114°08'0 0.0
2016-Jan-20 16:31N 22°18' E 114°08'0 0.0
2016-Jan-20 15:31N 22°18' E 114°08'0 0.0
2016-Jan-20 14:31N 22°18' E 114°08'0 0.0
2016-Jan-20 13:31N 22°18' E 114°08'0 0.0
2016-Jan-20 12:31N 22°18' E 114°08'0 0.0
2016-Jan-20 11:31N 22°18' E 114°08'0 0.0
2016-Jan-20 10:31N 22°18' E 114°08'0 0.0
2016-Jan-20 09:31N 22°18' E 114°08'17 6.9
2016-Jan-20 07:04N 22°10' E 114°24'21814.9
2016-Jan-19 16:23N 23°51' E 117°54'1315.3
2016-Jan-19 15:33N 23°59' E 118°04'1615.0
2016-Jan-19 14:30N 24°14' E 118°11'1212.3
2016-Jan-19 13:33N 24°24' E 118°06'7 6.8
2016-Jan-19 12:33N 24°31' E 118°05'0 0.0
2016-Jan-19 11:31N 24°31' E 118°05'0 0.0
2016-Jan-19 10:19N 24°31' E 118°05'  

Dump ship's entire track history